Time;durP1;ratioP1;P1;durP2;ratioP2;P2;SDS_P1;SDS_P2;PMS_P1;PMS_P2;Temp;Humidity;BMP_temperature;BMP_pressure;BME280_temperature;BME280_humidity;BME280_pressure;Samples;Min_cycle;Max_cycle;Signal;HPM_P1;HPM_P2
2022/04/17 00:00:19;;;;;;;3.60;2.88;;;7.10;99.90;;;;;;5017106;28;20045;-64
2022/04/17 00:02:45;;;;;;;3.42;3.08;;;7.10;99.90;;;;;;5013581;28;20124;-64
2022/04/17 00:05:11;;;;;;;3.22;2.92;;;7.00;99.90;;;;;;5015246;28;20096;-65
2022/04/17 00:07:37;;;;;;;3.55;3.25;;;7.10;99.90;;;;;;5016558;28;20795;-65
2022/04/17 00:10:03;;;;;;;4.40;2.70;;;7.00;99.90;;;;;;5015925;28;20052;-65
2022/04/17 00:12:29;;;;;;;5.43;3.70;;;7.00;99.90;;;;;;4998359;28;20893;-65
2022/04/17 00:14:55;;;;;;;6.35;3.58;;;7.00;99.90;;;;;;5016390;28;20127;-65
2022/04/17 00:17:21;;;;;;;3.67;3.22;;;7.00;99.90;;;;;;5016849;28;20045;-65
2022/04/17 00:19:47;;;;;;;3.78;3.45;;;7.00;99.90;;;;;;5016017;28;20037;-65
2022/04/17 00:22:14;;;;;;;4.10;3.60;;;7.00;99.90;;;;;;5016506;28;20076;-64
2022/04/17 00:24:40;;;;;;;3.38;2.78;;;7.00;99.90;;;;;;4999244;28;20111;-64
2022/04/17 00:27:06;;;;;;;4.40;3.38;;;7.00;99.90;;;;;;5015671;28;20057;-64
2022/04/17 00:29:31;;;;;;;4.50;4.05;;;6.90;99.90;;;;;;4998906;28;20063;-64
2022/04/17 00:31:57;;;;;;;5.45;3.55;;;6.80;99.90;;;;;;5014864;28;20045;-64
2022/04/17 00:34:23;;;;;;;5.80;3.55;;;6.80;99.90;;;;;;4996982;28;20045;-64
2022/04/17 00:36:49;;;;;;;8.85;4.60;;;6.80;99.90;;;;;;4980298;28;20732;-65
2022/04/17 00:39:15;;;;;;;5.15;4.32;;;6.70;99.90;;;;;;4998225;28;20057;-64
2022/04/17 00:41:40;;;;;;;4.00;3.33;;;6.70;99.90;;;;;;5013950;28;20049;-64
2022/04/17 00:44:13;;;;;;;3.97;3.47;;;6.60;99.90;;;;;;5037574;28;20468;-65
2022/04/17 00:46:40;;;;;;;6.65;5.50;;;6.60;99.90;;;;;;5019210;28;20036;-65
2022/04/17 00:49:09;;;;;;;5.22;3.78;;;6.60;99.90;;;;;;5036449;28;20485;-65
2022/04/17 00:51:36;;;;;;;4.40;4.00;;;6.50;99.90;;;;;;5037429;28;20055;-65
2022/04/17 00:54:07;;;;;;;6.05;3.92;;;6.50;99.90;;;;;;5037214;28;20063;-65
2022/04/17 00:56:34;;;;;;;9.73;4.22;;;6.50;99.90;;;;;;5017712;28;20781;-65
2022/04/17 00:59:02;;;;;;;3.90;3.47;;;6.50;99.90;;;;;;5036904;28;20045;-65
2022/04/17 01:01:32;;;;;;;5.20;4.03;;;6.40;99.90;;;;;;5036679;28;20044;-65
2022/04/17 01:03:58;;;;;;;6.32;4.10;;;6.50;99.90;;;;;;5037011;28;20048;-65
2022/04/17 01:06:24;;;;;;;4.65;3.95;;;6.40;99.90;;;;;;5037471;28;20048;-64
2022/04/17 01:08:50;;;;;;;5.32;3.45;;;6.40;99.90;;;;;;5018742;28;20061;-65
2022/04/17 01:11:17;;;;;;;3.85;3.55;;;6.30;99.90;;;;;;5037349;28;20087;-65
2022/04/17 01:13:43;;;;;;;8.80;4.60;;;6.30;99.90;;;;;;5036721;28;20092;-65
2022/04/17 01:16:09;;;;;;;5.00;4.40;;;6.30;99.90;;;;;;5036137;28;20049;-65
2022/04/17 01:19:00;;;;;;;5.35;4.82;;;6.40;99.90;;;;;;5037131;28;20083;-64
2022/04/17 01:21:26;;;;;;;4.07;3.67;;;6.40;99.90;;;;;;5018619;28;20072;-64
2022/04/17 01:26:56;;;;;;;4.80;4.32;;;6.20;99.90;;;;;;5015279;28;20507;-64
2022/04/17 01:29:22;;;;;;;4.85;4.43;;;6.20;99.90;;;;;;5018591;28;20149;-64
2022/04/17 01:31:48;;;;;;;5.28;4.22;;;6.10;99.90;;;;;;5034365;28;20049;-64
2022/04/17 01:34:15;;;;;;;5.65;4.47;;;6.10;99.90;;;;;;4979459;28;20131;-64
2022/04/17 01:36:46;;;;;;;8.05;5.38;;;6.10;99.90;;;;;;4996823;28;20140;-64
2022/04/17 01:39:12;;;;;;;6.10;4.53;;;6.00;99.90;;;;;;4996866;28;20413;-66
2022/04/17 01:41:38;;;;;;;5.25;4.75;;;6.00;99.90;;;;;;5001578;28;20190;-65
2022/04/17 01:44:05;;;;;;;5.22;4.63;;;6.00;99.90;;;;;;5016741;28;20046;-65
2022/04/17 01:46:30;;;;;;;4.55;4.10;;;6.00;99.90;;;;;;5017466;28;20049;-65
2022/04/17 01:48:56;;;;;;;6.40;4.72;;;5.90;99.90;;;;;;5018208;28;20106;-65
2022/04/17 01:51:22;;;;;;;6.35;4.78;;;6.00;99.90;;;;;;4994388;28;20045;-65
2022/04/17 01:53:48;;;;;;;6.35;5.50;;;6.00;99.90;;;;;;5032562;28;20053;-66
2022/04/17 01:56:13;;;;;;;4.53;4.13;;;6.00;99.90;;;;;;5034038;28;20044;-66
2022/04/17 01:58:39;;;;;;;5.22;4.50;;;5.90;99.90;;;;;;5029399;28;20120;-66
2022/04/17 02:01:05;;;;;;;6.10;3.92;;;5.90;99.90;;;;;;5018157;28;20049;-66
2022/04/17 02:03:30;;;;;;;6.22;4.28;;;5.90;99.90;;;;;;5018077;28;20523;-65
2022/04/17 02:05:56;;;;;;;6.47;4.30;;;5.80;99.90;;;;;;5036301;28;20044;-66
2022/04/17 02:08:22;;;;;;;6.57;4.97;;;5.80;99.90;;;;;;5036390;28;20138;-64
2022/04/17 02:10:47;;;;;;;8.07;5.18;;;5.70;99.90;;;;;;5033461;28;20045;-64
2022/04/17 02:13:14;;;;;;;6.05;5.32;;;5.60;99.90;;;;;;5016129;28;20684;-64
2022/04/17 02:15:39;;;;;;;6.10;4.90;;;5.60;99.90;;;;;;5011791;28;20047;-64
2022/04/17 02:18:05;;;;;;;7.32;4.72;;;5.60;99.90;;;;;;5016107;28;20060;-65
2022/04/17 02:20:31;;;;;;;4.82;4.22;;;5.50;99.90;;;;;;5027295;28;20041;-65
2022/04/17 02:22:57;;;;;;;5.43;4.57;;;5.50;99.90;;;;;;5036119;28;20182;-65
2022/04/17 02:25:22;;;;;;;5.38;4.85;;;5.40;99.90;;;;;;5035904;28;20132;-64
2022/04/17 02:27:48;;;;;;;6.40;4.28;;;5.40;99.90;;;;;;5004485;28;20045;-65
2022/04/17 02:30:14;;;;;;;5.75;5.05;;;5.40;99.90;;;;;;5000213;28;20161;-64
2022/04/17 02:32:40;;;;;;;5.32;4.47;;;5.40;99.90;;;;;;4996192;28;20078;-64
2022/04/17 02:35:06;;;;;;;5.90;4.68;;;5.30;99.90;;;;;;4998080;28;20260;-64
2022/04/17 02:37:36;;;;;;;6.50;5.80;;;6.00;99.90;;;;;;5006688;28;20525;-65
2022/04/17 02:40:02;;;;;;;6.05;5.10;;;5.20;99.90;;;;;;5014967;28;20050;-64
2022/04/17 02:42:27;;;;;;;7.13;5.40;;;5.20;99.90;;;;;;5015757;28;20068;-64
2022/04/17 02:44:53;;;;;;;4.75;4.25;;;5.30;99.90;;;;;;5017069;28;20045;-64
2022/04/17 02:50:04;;;;;;;7.38;5.40;;;5.10;99.90;;;;;;5017579;28;20134;-64
2022/04/17 02:52:30;;;;;;;6.22;4.38;;;5.10;99.90;;;;;;5035634;28;20048;-64
2022/04/17 02:54:55;;;;;;;6.03;4.70;;;5.10;99.90;;;;;;4995641;28;20760;-65
2022/04/17 02:57:21;;;;;;;7.75;4.85;;;5.10;99.90;;;;;;4995799;28;20795;-64
2022/04/17 02:59:46;;;;;;;5.90;4.95;;;5.20;99.90;;;;;;5003611;28;20480;-64
2022/04/17 03:07:40;;;;;;;6.40;5.40;;;5.10;99.90;;;;;;5039115;28;20129;-64
2022/04/17 03:10:06;;;;;;;5.68;4.50;;;5.00;99.90;;;;;;5012735;28;20045;-65
2022/04/17 03:12:32;;;;;;;6.45;5.25;;;5.00;99.90;;;;;;4999370;28;20052;-64
2022/04/17 03:14:57;;;;;;;9.90;5.43;;;5.00;99.90;;;;;;4999092;28;20085;-65
2022/04/17 03:17:24;;;;;;;7.93;5.78;;;4.90;99.90;;;;;;4998916;28;20061;-65
2022/04/17 03:19:52;;;;;;;8.48;5.85;;;5.00;99.90;;;;;;5015107;28;20092;-64
2022/04/17 03:22:21;;;;;;;6.80;5.03;;;5.00;99.90;;;;;;5020349;28;20127;-65
2022/04/17 03:24:47;;;;;;;6.95;5.32;;;5.10;99.90;;;;;;5038813;28;20087;-64
2022/04/17 03:27:12;;;;;;;8.52;5.43;;;5.10;99.90;;;;;;5020713;28;20057;-64
2022/04/17 03:29:38;;;;;;;7.97;6.18;;;5.10;99.90;;;;;;5037850;28;20037;-64
2022/04/17 03:32:04;;;;;;;6.68;5.95;;;5.00;99.90;;;;;;5021018;28;20082;-64
2022/04/17 03:34:29;;;;;;;7.75;5.65;;;4.90;99.90;;;;;;5038230;28;20519;-64
2022/04/17 03:36:58;;;;;;;6.40;5.68;;;4.90;99.90;;;;;;5010595;28;20038;-64
2022/04/17 03:39:24;;;;;;;6.10;5.50;;;4.90;99.90;;;;;;4998884;28;20054;-64
2022/04/17 03:41:50;;;;;;;8.85;6.65;;;4.90;99.90;;;;;;4980576;28;20049;-64
2022/04/17 03:44:16;;;;;;;8.45;5.68;;;5.00;99.90;;;;;;5001550;28;20148;-64
2022/04/17 03:46:42;;;;;;;8.20;6.90;;;4.80;99.90;;;;;;5018165;28;20756;-64
2022/04/17 03:49:07;;;;;;;6.30;5.72;;;4.70;99.90;;;;;;5020727;28;20479;-64
2022/04/17 03:51:33;;;;;;;8.70;5.80;;;4.80;99.90;;;;;;5037939;28;20149;-64
2022/04/17 03:53:58;;;;;;;7.03;5.70;;;4.70;99.90;;;;;;5020049;28;20056;-64
2022/04/17 03:56:24;;;;;;;6.65;5.93;;;4.70;99.90;;;;;;5038305;28;20044;-64
2022/04/17 03:58:50;;;;;;;6.00;5.50;;;4.70;99.90;;;;;;5019357;28;20067;-64
2022/04/17 04:01:16;;;;;;;8.20;4.80;;;4.70;99.90;;;;;;5037878;28;20107;-64
2022/04/17 04:03:41;;;;;;;5.65;5.15;;;4.70;99.90;;;;;;5019570;28;20061;-64
2022/04/17 04:06:07;;;;;;;7.03;5.70;;;4.70;99.90;;;;;;5037032;28;20468;-64
2022/04/17 04:08:32;;;;;;;6.78;6.03;;;4.60;99.90;;;;;;5038003;28;20088;-64
2022/04/17 04:10:58;;;;;;;6.90;6.05;;;4.70;99.90;;;;;;5019990;28;20135;-64
2022/04/17 04:13:24;;;;;;;9.77;6.47;;;4.70;99.90;;;;;;5019161;28;20092;-64
2022/04/17 04:15:49;;;;;;;9.50;7.38;;;4.70;99.90;;;;;;5037103;28;20053;-63
2022/04/17 04:18:15;;;;;;;7.22;6.00;;;4.70;99.90;;;;;;5037261;28;20070;-64
2022/04/17 04:20:40;;;;;;;6.85;6.20;;;4.70;99.90;;;;;;5019217;28;20053;-64
2022/04/17 04:23:06;;;;;;;9.38;7.60;;;4.60;99.90;;;;;;5020149;28;20154;-64
2022/04/17 04:25:31;;;;;;;10.02;7.38;;;4.60;99.90;;;;;;5019086;28;20074;-64
2022/04/17 04:30:42;;;;;;;8.43;6.93;;;4.60;99.90;;;;;;5037882;28;20068;-64
2022/04/17 04:33:08;;;;;;;9.40;6.93;;;4.60;99.90;;;;;;5036610;28;20148;-64
2022/04/17 04:35:33;;;;;;;10.38;7.22;;;4.50;99.90;;;;;;5032638;28;20312;-65
2022/04/17 04:38:01;;;;;;;9.65;7.07;;;4.50;99.90;;;;;;4997475;28;20791;-64
2022/04/17 04:40:31;;;;;;;9.00;7.72;;;4.50;99.90;;;;;;4979876;28;20057;-64
2022/04/17 04:43:00;;;;;;;7.75;6.72;;;4.50;99.90;;;;;;4997951;28;20038;-64
2022/04/17 04:48:10;;;;;;;11.73;7.95;;;4.50;99.90;;;;;;4996942;28;20305;-64
2022/04/17 04:50:37;;;;;;;9.20;7.65;;;4.50;99.90;;;;;;5009832;28;20485;-64
2022/04/17 04:53:02;;;;;;;10.13;7.65;;;4.40;99.90;;;;;;5019333;28;20850;-64
2022/04/17 04:55:28;;;;;;;12.70;8.63;;;4.40;99.90;;;;;;5036412;28;20045;-64
2022/04/17 04:57:54;;;;;;;8.90;8.10;;;4.40;99.90;;;;;;5036983;28;20428;-64
2022/04/17 05:00:19;;;;;;;9.13;6.97;;;4.40;99.90;;;;;;5036422;28;20045;-64
2022/04/17 05:02:45;;;;;;;10.93;7.15;;;4.30;99.90;;;;;;5018299;28;20500;-66
2022/04/17 05:05:11;;;;;;;9.57;8.38;;;4.30;99.90;;;;;;5036319;28;20457;-65
2022/04/17 05:07:37;;;;;;;11.25;8.27;;;4.20;99.90;;;;;;5018419;28;20801;-66
2022/04/17 05:10:07;;;;;;;8.43;7.07;;;4.20;99.90;;;;;;5037040;28;20044;-65
2022/04/17 05:12:33;;;;;;;11.38;7.93;;;4.40;99.90;;;;;;5019130;28;20682;-66
2022/04/17 05:15:00;;;;;;;9.55;8.65;;;4.40;99.90;;;;;;5036073;28;20053;-66
2022/04/17 05:17:25;;;;;;;11.43;8.75;;;4.50;99.90;;;;;;5018261;28;20619;-66
2022/04/17 05:19:51;;;;;;;11.55;8.60;;;4.50;99.90;;;;;;5018708;28;20045;-65
2022/04/17 05:22:17;;;;;;;8.90;7.93;;;4.60;99.90;;;;;;5036014;28;20055;-66
2022/04/17 05:24:44;;;;;;;9.50;8.10;;;4.60;99.90;;;;;;5036930;28;20091;-65
2022/04/17 05:27:09;;;;;;;11.18;8.57;;;4.60;99.90;;;;;;5035907;28;20040;-65
2022/04/17 05:29:35;;;;;;;10.98;8.13;;;4.70;99.90;;;;;;5034583;28;20041;-66
2022/04/17 05:32:01;;;;;;;14.63;9.38;;;4.70;99.90;;;;;;5036047;28;20108;-65
2022/04/17 05:34:27;;;;;;;11.57;9.10;;;4.80;99.90;;;;;;5018043;28;20499;-65
2022/04/17 05:36:52;;;;;;;12.13;10.02;;;4.90;99.90;;;;;;5008999;28;20073;-65
2022/04/17 05:39:18;;;;;;;10.23;9.18;;;4.90;99.90;;;;;;4996432;28;20140;-65
2022/04/17 05:41:44;;;;;;;14.60;9.18;;;4.90;99.90;;;;;;4979294;28;20145;-65
2022/04/17 05:44:11;;;;;;;11.18;8.48;;;5.00;99.90;;;;;;4978298;28;20081;-65
2022/04/17 05:46:38;;;;;;;11.98;8.27;;;5.10;99.90;;;;;;4978895;28;20460;-65
2022/04/17 05:49:05;;;;;;;11.70;8.40;;;5.10;99.90;;;;;;4983873;28;20080;-66
2022/04/17 05:51:33;;;;;;;11.63;9.77;;;5.20;99.90;;;;;;5036057;28;20037;-65
2022/04/17 05:54:00;;;;;;;14.15;9.23;;;5.30;99.90;;;;;;5036343;28;20056;-66
2022/04/17 05:56:26;;;;;;;10.63;9.60;;;5.40;99.90;;;;;;5036077;28;20510;-65
2022/04/17 05:58:52;;;;;;;14.43;10.30;;;5.50;99.90;;;;;;5035526;28;20052;-66
2022/04/17 06:01:18;;;;;;;14.15;10.35;;;5.50;99.90;;;;;;5031725;28;20051;-65
2022/04/17 06:03:43;;;;;;;14.52;10.45;;;5.60;99.90;;;;;;5017066;28;20143;-65
2022/04/17 06:06:09;;;;;;;12.50;10.02;;;5.70;99.90;;;;;;4996649;28;20041;-65
2022/04/17 06:08:34;;;;;;;17.40;11.27;;;5.70;99.90;;;;;;4996122;28;20718;-65
2022/04/17 06:11:01;;;;;;;14.57;10.52;;;5.80;99.90;;;;;;5014183;28;20038;-65
2022/04/17 06:13:26;;;;;;;14.52;10.68;;;5.90;99.90;;;;;;5014942;28;20549;-65
2022/04/17 06:15:52;;;;;;;12.27;10.00;;;5.90;99.90;;;;;;4997235;28;20041;-65
2022/04/17 06:18:17;;;;;;;11.90;9.90;;;5.90;99.90;;;;;;4996320;28;20095;-66
2022/04/17 06:20:43;;;;;;;12.98;11.10;;;6.00;99.90;;;;;;5016958;28;20713;-65
2022/04/17 06:23:08;;;;;;;12.02;10.15;;;6.10;99.90;;;;;;4996986;28;20049;-65
2022/04/17 06:25:34;;;;;;;12.43;10.70;;;6.00;99.90;;;;;;4996422;28;20038;-66
2022/04/17 06:28:00;;;;;;;15.43;10.63;;;6.30;99.90;;;;;;4997043;28;20041;-65
2022/04/17 06:30:26;;;;;;;14.32;10.35;;;6.40;99.90;;;;;;4998602;28;20472;-65
2022/04/17 06:32:52;;;;;;;14.75;11.52;;;6.50;99.90;;;;;;5015337;28;20057;-66
2022/04/17 06:35:18;;;;;;;15.70;11.00;;;6.60;99.90;;;;;;5015534;28;20049;-65
2022/04/17 06:37:54;;;;;;;13.25;11.77;;;6.80;99.90;;;;;;5015715;28;20053;-65
2022/04/17 06:40:24;;;;;;;15.05;11.48;;;6.90;99.90;;;;;;4997168;28;20485;-65
2022/04/17 06:42:52;;;;;;;16.85;11.57;;;7.10;99.90;;;;;;5019055;28;20317;-65
2022/04/17 06:45:18;;;;;;;16.55;11.18;;;7.20;99.90;;;;;;5018048;28;20132;-65
2022/04/17 06:47:44;;;;;;;16.48;11.45;;;7.40;99.90;;;;;;5018179;28;20065;-66
2022/04/17 06:50:11;;;;;;;18.50;11.30;;;7.60;99.90;;;;;;5019272;28;20053;-66
2022/04/17 06:52:37;;;;;;;18.52;13.55;;;8.60;99.90;;;;;;5018985;28;20049;-66
2022/04/17 06:55:04;;;;;;;14.80;12.63;;;7.80;99.90;;;;;;5018886;28;20041;-66
2022/04/17 06:57:30;;;;;;;16.95;12.02;;;8.00;99.90;;;;;;5019124;28;20873;-66
2022/04/17 06:59:56;;;;;;;16.00;11.05;;;8.10;99.90;;;;;;5001464;28;20045;-66
2022/04/17 07:02:22;;;;;;;13.70;11.10;;;8.30;99.90;;;;;;5022490;28;20175;-67
2022/04/17 07:04:47;;;;;;;14.35;12.38;;;8.60;99.90;;;;;;5021330;28;20171;-67
2022/04/17 07:07:13;;;;;;;16.02;11.30;;;9.00;99.90;;;;;;5020304;28;20067;-67
2022/04/17 07:09:38;;;;;;;18.50;11.40;;;9.70;99.90;;;;;;5038917;28;20105;-67
2022/04/17 07:12:04;;;;;;;11.85;9.90;;;11.30;99.90;;;;;;5039456;28;20538;-66
2022/04/17 07:14:30;;;;;;;12.98;10.57;;;13.00;99.90;;;;;;5038121;28;20842;-66
2022/04/17 07:16:55;;;;;;;13.23;10.43;;;14.40;99.90;;;;;;5021138;28;20092;-66
2022/04/17 07:19:21;;;;;;;11.90;9.63;;;15.40;97.80;;;;;;5038868;28;20048;-66
2022/04/17 07:21:46;;;;;;;12.90;10.75;;;16.40;95.70;;;;;;5038883;28;20075;-65
2022/04/17 07:24:12;;;;;;;10.63;9.55;;;17.20;94.50;;;;;;5020646;28;20045;-65
2022/04/17 07:26:38;;;;;;;11.25;9.15;;;17.80;92.30;;;;;;5038707;28;20041;-64
2022/04/17 07:29:03;;;;;;;12.45;8.90;;;18.50;91.20;;;;;;5020544;28;20911;-65
2022/04/17 07:31:29;;;;;;;11.80;9.60;;;18.80;89.00;;;;;;5038449;28;20270;-66
2022/04/17 07:33:55;;;;;;;13.57;10.35;;;19.30;87.60;;;;;;5038523;28;20702;-65
2022/04/17 07:36:20;;;;;;;10.98;9.80;;;19.50;84.70;;;;;;5020138;28;20046;-65
2022/04/17 07:38:46;;;;;;;11.82;9.13;;;19.80;82.20;;;;;;4988196;28;20053;-65
2022/04/17 07:41:12;;;;;;;9.77;8.85;;;19.90;80.40;;;;;;5017423;28;20150;-65
2022/04/17 07:43:38;;;;;;;10.23;9.05;;;20.30;76.90;;;;;;4999354;28;20041;-65
2022/04/17 07:46:04;;;;;;;10.00;8.82;;;20.80;75.80;;;;;;4999468;28;20103;-65
2022/04/17 07:48:29;;;;;;;9.70;8.02;;;21.10;73.40;;;;;;4999309;28;20049;-66
2022/04/17 07:50:55;;;;;;;10.05;8.43;;;21.20;70.00;;;;;;5017305;28;20575;-65
2022/04/17 07:53:20;;;;;;;9.88;8.75;;;21.60;69.10;;;;;;4998001;28;20450;-65
2022/04/17 07:55:47;;;;;;;9.95;8.43;;;21.60;66.50;;;;;;5000561;28;20053;-65
2022/04/17 07:58:22;;;;;;;10.93;8.93;;;21.60;65.00;;;;;;5016858;28;20053;-64
2022/04/17 08:00:57;;;;;;;9.77;8.75;;;21.50;64.80;;;;;;5030290;28;20052;-65
2022/04/17 08:03:34;;;;;;;12.32;9.50;;;21.70;64.30;;;;;;5037721;28;20056;-65
2022/04/17 08:06:01;;;;;;;12.63;8.75;;;21.80;63.70;;;;;;5038048;28;20057;-65
2022/04/17 08:08:28;;;;;;;11.90;8.68;;;22.10;63.40;;;;;;5019788;28;20059;-66
2022/04/17 08:10:54;;;;;;;9.57;7.07;;;22.20;63.00;;;;;;5019473;28;20152;-65
2022/04/17 08:13:19;;;;;;;8.85;7.50;;;22.00;61.70;;;;;;5037591;28;20126;-65
2022/04/17 08:15:45;;;;;;;9.15;7.60;;;22.10;60.90;;;;;;5037689;28;20053;-65
2022/04/17 08:18:11;;;;;;;10.20;7.78;;;22.30;59.50;;;;;;5035666;28;20052;-65
2022/04/17 08:20:37;;;;;;;8.27;7.15;;;22.60;58.90;;;;;;5036104;28;20119;-65
2022/04/17 08:23:03;;;;;;;9.65;8.75;;;22.90;58.80;;;;;;5018551;28;20082;-65
2022/04/17 08:25:28;;;;;;;8.98;7.43;;;23.30;58.50;;;;;;5018146;28;20151;-66
2022/04/17 08:27:57;;;;;;;9.30;7.95;;;22.80;57.70;;;;;;5036755;28;20052;-66
2022/04/17 08:30:27;;;;;;;8.32;7.53;;;22.70;57.70;;;;;;5037053;28;20116;-65
2022/04/17 08:32:52;;;;;;;8.38;7.57;;;22.70;57.40;;;;;;5036726;28;20494;-65
2022/04/17 08:35:18;;;;;;;8.95;8.05;;;22.60;56.60;;;;;;5018433;28;20037;-65
2022/04/17 08:37:45;;;;;;;12.23;7.93;;;22.50;56.50;;;;;;4997343;28;20046;-65
2022/04/17 08:40:12;;;;;;;8.52;7.07;;;22.30;55.90;;;;;;4997079;28;20772;-65
2022/04/17 08:42:38;;;;;;;8.48;7.40;;;22.40;56.30;;;;;;4998272;28;20042;-65
2022/04/17 08:45:04;;;;;;;8.57;7.72;;;22.50;56.00;;;;;;4997760;28;20042;-66
2022/04/17 08:47:30;;;;;;;7.90;7.07;;;22.60;55.60;;;;;;4994607;28;20057;-66
2022/04/17 08:49:55;;;;;;;9.73;7.47;;;22.70;54.70;;;;;;5013878;28;20053;-65
2022/04/17 08:52:22;;;;;;;8.02;7.22;;;22.20;53.90;;;;;;5033672;28;20095;-65
2022/04/17 08:54:49;;;;;;;11.48;7.82;;;22.60;54.30;;;;;;5014693;28;20103;-66
2022/04/17 08:57:16;;;;;;;10.18;7.43;;;22.50;54.00;;;;;;5034379;28;20060;-65
2022/04/17 08:59:42;;;;;;;7.60;6.90;;;22.50;53.60;;;;;;5032744;28;20077;-65
2022/04/17 09:02:10;;;;;;;9.15;7.45;;;22.30;53.70;;;;;;5014460;28;20128;-65
2022/04/17 09:04:37;;;;;;;9.48;7.22;;;22.60;53.30;;;;;;4996304;28;20374;-65
2022/04/17 09:07:06;;;;;;;8.93;7.18;;;22.20;53.10;;;;;;4994914;28;20039;-66
2022/04/17 09:09:32;;;;;;;8.65;7.22;;;22.30;52.90;;;;;;4995565;28;20076;-66
2022/04/17 09:11:58;;;;;;;7.45;6.00;;;22.60;53.00;;;;;;5014528;28;20444;-65
2022/04/17 09:14:23;;;;;;;8.75;7.50;;;22.60;53.10;;;;;;4996817;28;20083;-65
2022/04/17 09:16:50;;;;;;;7.63;6.82;;;22.50;52.90;;;;;;5014594;28;20049;-66
2022/04/17 09:19:17;;;;;;;7.20;6.00;;;22.70;51.90;;;;;;5018391;28;20144;-66
2022/04/17 09:21:44;;;;;;;8.35;6.47;;;22.80;51.60;;;;;;5017040;28;20071;-65
2022/04/17 09:24:20;;;;;;;8.88;6.60;;;22.40;51.60;;;;;;5017369;28;20049;-65
2022/04/17 09:26:57;;;;;;;7.00;6.32;;;22.40;51.80;;;;;;5036638;28;20144;-65
2022/04/17 09:29:28;;;;;;;6.95;6.35;;;22.10;51.10;;;;;;5036781;28;20080;-65
2022/04/17 09:32:04;;;;;;;6.85;5.88;;;22.00;51.90;;;;;;5017958;28;20780;-65
2022/04/17 09:34:55;;;;;;;7.95;5.97;;;22.40;51.60;;;;;;5018539;28;20099;-65
2022/04/17 09:37:27;;;;;;;7.15;6.45;;;22.40;49.90;;;;;;4984516;28;20061;-65
2022/04/17 09:40:04;;;;;;;6.85;5.93;;;22.60;51.40;;;;;;4978784;28;20077;-65
2022/04/17 09:42:30;;;;;;;6.22;5.55;;;23.00;51.50;;;;;;4995941;28;20053;-66
2022/04/17 09:44:57;;;;;;;8.20;5.70;;;23.30;51.50;;;;;;4996582;28;20053;-65
2022/04/17 09:47:25;;;;;;;7.97;5.72;;;23.30;50.90;;;;;;4996673;28;20046;-65
2022/04/17 09:49:58;;;;;;;6.35;5.53;;;22.60;49.60;;;;;;4995571;28;20052;-65
2022/04/17 09:52:30;;;;;;;8.60;6.32;;;22.80;49.00;;;;;;5018321;28;20056;-65
2022/04/17 09:54:55;;;;;;;6.40;5.80;;;22.90;49.40;;;;;;5035958;28;20777;-65
2022/04/17 09:57:31;;;;;;;7.35;5.63;;;23.00;49.90;;;;;;5017649;28;20060;-65
2022/04/17 10:00:05;;;;;;;6.50;5.85;;;22.90;48.30;;;;;;5035971;28;20067;-65
2022/04/17 10:02:31;;;;;;;5.78;4.80;;;22.90;49.50;;;;;;5036041;28;20413;-65
2022/04/17 10:04:57;;;;;;;5.57;5.05;;;23.10;49.10;;;;;;5036114;28;20686;-65
2022/04/17 10:07:25;;;;;;;6.15;5.03;;;23.20;49.10;;;;;;5036258;28;20045;-65
2022/04/17 10:09:51;;;;;;;6.15;5.55;;;23.10;48.40;;;;;;5017826;28;20056;-65
2022/04/17 10:12:20;;;;;;;6.68;4.85;;;23.00;48.50;;;;;;5035200;28;20045;-65
2022/04/17 10:14:50;;;;;;;6.47;5.35;;;22.80;48.30;;;;;;5017575;28;20072;-65
2022/04/17 10:17:20;;;;;;;5.65;5.07;;;22.70;48.10;;;;;;5017070;28;20060;-65
2022/04/17 10:19:48;;;;;;;6.82;5.03;;;22.10;47.80;;;;;;5018632;28;20092;-65
2022/04/17 10:22:18;;;;;;;5.45;4.95;;;22.30;48.80;;;;;;5035650;28;20432;-65
2022/04/17 10:24:51;;;;;;;7.25;5.35;;;22.70;48.60;;;;;;5017329;28;20056;-65
2022/04/17 10:27:24;;;;;;;5.00;4.45;;;22.60;48.00;;;;;;5017540;28;20896;-65
2022/04/17 10:29:56;;;;;;;7.40;5.15;;;22.70;47.40;;;;;;5016967;28;20075;-65
2022/04/17 10:32:44;;;;;;;4.28;3.78;;;22.60;46.70;;;;;;5017705;28;20151;-64
2022/04/17 10:35:48;;;;;;;3.97;3.58;;;22.50;45.70;;;;;;5017735;28;20053;-65
2022/04/17 10:38:29;;;;;;;3.75;3.45;;;23.10;45.40;;;;;;4995319;28;20109;-65
2022/04/17 10:41:08;;;;;;;6.00;3.47;;;23.40;46.00;;;;;;4995844;28;20137;-65
2022/04/17 10:43:42;;;;;;;4.90;3.60;;;23.70;46.10;;;;;;4996123;28;20049;-65
2022/04/17 10:46:19;;;;;;;5.63;3.33;;;23.40;44.60;;;;;;4996302;28;20081;-65
2022/04/17 10:48:55;;;;;;;4.00;3.60;;;23.20;44.90;;;;;;5015737;28;20058;-65
2022/04/17 10:51:27;;;;;;;3.30;3.00;;;22.40;44.40;;;;;;4998516;28;20094;-65
2022/04/17 10:54:03;;;;;;;7.45;3.50;;;22.00;44.50;;;;;;4997771;28;20057;-64
2022/04/17 10:56:29;;;;;;;4.68;3.70;;;21.30;44.50;;;;;;5015752;28;20041;-64
2022/04/17 10:58:57;;;;;;;3.83;3.28;;;20.70;44.90;;;;;;5015283;28;20092;-64
2022/04/17 11:01:46;;;;;;;4.40;3.67;;;20.00;44.60;;;;;;5014622;28;20136;-65
2022/04/17 11:04:37;;;;;;;4.88;4.05;;;19.70;45.60;;;;;;4986522;28;20061;-65
2022/04/17 11:07:06;;;;;;;5.07;4.63;;;19.30;46.00;;;;;;4997635;28;20504;-64
2022/04/17 11:09:41;;;;;;;5.82;3.90;;;19.10;46.00;;;;;;5015483;28;20119;-64
2022/04/17 11:12:10;;;;;;;5.18;4.00;;;18.90;45.90;;;;;;4997711;28;20096;-64
2022/04/17 11:14:38;;;;;;;5.60;3.22;;;18.60;45.90;;;;;;5014279;28;20065;-64
2022/04/17 11:17:08;;;;;;;4.47;3.70;;;18.60;45.70;;;;;;4997633;28;20057;-64
2022/04/17 11:19:36;;;;;;;3.90;3.40;;;18.50;45.60;;;;;;4997416;28;20049;-64
2022/04/17 11:22:04;;;;;;;4.13;3.63;;;18.50;45.40;;;;;;5014404;28;20049;-64
2022/04/17 11:24:57;;;;;;;4.43;3.28;;;18.30;44.70;;;;;;4996901;28;20046;-64
2022/04/17 11:27:31;;;;;;;5.25;3.70;;;18.10;44.80;;;;;;4996793;28;20497;-64
2022/04/17 11:30:02;;;;;;;7.22;4.85;;;17.90;45.70;;;;;;5018738;28;20148;-64
2022/04/17 11:32:27;;;;;;;3.95;3.35;;;17.80;46.10;;;;;;5019431;28;20038;-64
2022/04/17 11:34:53;;;;;;;4.47;3.70;;;17.90;45.60;;;;;;5017866;28;20111;-64
2022/04/17 11:37:23;;;;;;;5.25;3.90;;;18.00;45.40;;;;;;5000864;28;20054;-64
2022/04/17 11:39:50;;;;;;;5.72;4.25;;;18.10;45.70;;;;;;5000648;28;20064;-64
2022/04/17 11:42:17;;;;;;;5.57;3.92;;;18.10;45.40;;;;;;4999897;28;20389;-64
2022/04/17 11:44:44;;;;;;;6.32;4.03;;;18.00;46.00;;;;;;5000561;28;20073;-64
2022/04/17 11:47:17;;;;;;;5.10;3.72;;;18.00;46.40;;;;;;5018504;28;20076;-64
2022/04/17 11:49:44;;;;;;;4.90;4.40;;;17.90;46.60;;;;;;5025425;28;20239;-64
2022/04/17 11:52:14;;;;;;;5.97;4.28;;;17.70;46.60;;;;;;5020397;28;20826;-64
2022/04/17 11:54:42;;;;;;;5.75;4.50;;;17.70;46.80;;;;;;5038099;28;20079;-64
2022/04/17 11:57:08;;;;;;;5.38;3.95;;;17.80;46.60;;;;;;5038195;28;20045;-64
2022/04/17 11:59:47;;;;;;;5.88;4.38;;;17.90;46.60;;;;;;5020369;28;20037;-64
2022/04/17 12:02:16;;;;;;;4.60;3.88;;;18.00;46.60;;;;;;5037960;28;20041;-64
2022/04/17 12:04:42;;;;;;;6.03;4.80;;;18.10;46.40;;;;;;5019643;28;20329;-64
2022/04/17 12:07:09;;;;;;;5.30;4.38;;;18.20;46.20;;;;;;5037641;28;20041;-64
2022/04/17 12:09:35;;;;;;;5.63;5.07;;;18.10;46.40;;;;;;5037813;28;20045;-64
2022/04/17 12:12:00;;;;;;;8.70;5.40;;;18.00;46.50;;;;;;5037451;28;20045;-64
2022/04/17 12:14:31;;;;;;;5.40;4.85;;;18.00;46.80;;;;;;5037763;28;20057;-64
2022/04/17 12:16:56;;;;;;;5.50;5.00;;;18.00;47.40;;;;;;5037238;28;20057;-64
2022/04/17 12:19:25;;;;;;;6.75;4.65;;;18.10;47.20;;;;;;5019218;28;20057;-64
2022/04/17 12:21:51;;;;;;;7.05;5.68;;;18.20;47.00;;;;;;5036916;28;20470;-64
2022/04/17 12:24:17;;;;;;;5.47;4.63;;;18.20;46.50;;;;;;5036664;28;20146;-64
2022/04/17 12:26:43;;;;;;;6.10;5.50;;;18.30;46.70;;;;;;5019769;28;20788;-64
2022/04/17 12:29:09;;;;;;;7.25;4.88;;;18.00;46.70;;;;;;5037254;28;20044;-64
2022/04/17 12:31:35;;;;;;;7.00;4.75;;;18.00;47.20;;;;;;5036340;28;20044;-64
2022/04/17 12:34:08;;;;;;;7.18;5.03;;;17.90;46.80;;;;;;5019379;28;20049;-64
2022/04/17 12:36:37;;;;;;;6.70;4.60;;;17.90;47.10;;;;;;5007547;28;20766;-64
2022/04/17 12:39:03;;;;;;;7.20;4.65;;;17.80;46.90;;;;;;5015130;28;20041;-64
2022/04/17 12:41:44;;;;;;;5.50;4.88;;;17.90;47.00;;;;;;5015705;28;20038;-64
2022/04/17 12:44:10;;;;;;;6.63;5.10;;;18.00;46.90;;;;;;5015360;28;20072;-64
2022/04/17 12:46:42;;;;;;;6.85;4.55;;;18.20;47.20;;;;;;4997987;28;20997;-64
2022/04/17 12:49:22;;;;;;;7.95;4.47;;;18.40;47.50;;;;;;5000271;28;20063;-64
2022/04/17 12:51:57;;;;;;;4.95;4.45;;;18.60;47.50;;;;;;5014645;28;20041;-64
2022/04/17 12:54:29;;;;;;;6.18;4.70;;;18.70;47.70;;;;;;5015243;28;20053;-65
2022/04/17 12:57:05;;;;;;;8.45;5.25;;;18.60;47.50;;;;;;5015779;28;20041;-65
2022/04/17 12:59:48;;;;;;;5.85;4.45;;;18.90;47.10;;;;;;5016735;28;20113;-65
2022/04/17 13:02:15;;;;;;;;;;;19.00;46.80;;;;;;5018971;28;20053;-64
2022/04/17 13:04:45;;;;;;;6.30;4.53;;;18.90;48.30;;;;;;5037482;28;19925;-65
2022/04/17 13:07:15;;;;;;;4.88;3.92;;;19.10;46.40;;;;;;5018600;28;20044;-65